KBJJ/BJJ METAR and TAF weather

Enter ICAO airport designator
Station Type Date Time Source
KBJJ METAR 2022/01/19 15:56 UTC NOAA

KBJJ 191556Z AUTO 24015KT 10SM FEW023 SCT120 04/00 A2989 RMK AO2 SLP133 T00440000


Station Type Date Time Source
KBJJ Decoded METAR 2022/01/19 15:56 UTC NOAA

WOOSTER WAYNE COUNTY AIRPORT, OH, United States (KBJJ) 40-52N 81-53W 343M
Jan 19, 2022 - 10:56 AM EST / 2022.01.19 1556 UTC
Wind: from the WSW (240 degrees) at 17 MPH (15 KT):0
Visibility: 10 mile(s):0
Sky conditions: partly cloudy
Temperature: 39.9 F (4.4 C)
Dew Point: 32.0 F (0.0 C)
Relative Humidity: 73%
Pressure (altimeter): 29.89 in. Hg (1012 hPa)
ob: KBJJ 191556Z AUTO 24015KT 10SM FEW023 SCT120 04/00 A2989 RMK AO2 SLP133 T00440000
cycle: 16

Station Type Date Time Source
KBJJ TAF UTC NOAA

Error!

Example: see airport list